Terminal Aerodrome Forecast
Issued by NWS

Home | Current Version | Previous Version | Graphics & Text | Print | Product List | Glossary On
Versions: 1 2 3 4 5 6 7 8 9 10 11 12 13 14 15 16 17 18 19 20 21 22 23
000
FTUS43 KLOT 190339 AAA
TAFGYY
TAF AMD
KGYY 190339Z 1904/1924 22005KT P6SM SCT250
     FM190600 22005KT P6SM BKN060
     FM191500 02010KT P6SM BKN080
     FM191700 36007KT P6SM SCT015 BKN040=

USA.gov is the U.S. government's official web portal to all federal, state and local government web resources and services.